Airfield :
LOGIN :

Register | Disclaimer

   EN    FR    IT 

 










Legend :    VFR   Marginal VFR   IFR   Intensive IFR   Very Intensive IFR
Visi :
Ceiling :
>= 8 km
>= 3000ft
5 to 8 km
1000 to 3000 ft
1500m to 5 km
500 to 1000 ft
800 to 1500m
200 to 500 ft
< 800m
< 200 ft
Symbols :   Thunderstorms  Fog  Heavy snow  Heavy precipitations  Wind > 20 kt
SIGMETs :     Misc.  Thunderstorms  Icing  Turbulence  Mountain Waves  Volcanic Ashes






- Airport Elevation : 79 ft
- IATA code : SPU


LDSP - Split

CURRENT METAR :
  • 141430Z VRB02KT CAVOK 25/12 Q1021 TEMPO 23006KT

EXPIRED METARs :
  • 141400Z 19003KT 140V270 CAVOK 24/14 Q1022 TEMPO 23007KT
  • 141330Z 23008KT CAVOK 23/15 Q1022 NOSIG
  • 141300Z 23008KT CAVOK 25/13 Q1022 NOSIG
  • 141230Z 23006KT 190V260 CAVOK 24/13 Q1023 NOSIG
  • 141200Z 23008KT CAVOK 25/14 Q1023 NOSIG
  • 141130Z 22008KT 170V250 CAVOK 25/13 Q1023 BECMG 23008KT
  • 141100Z VRB04KT CAVOK 25/10 Q1023 BECMG 23008KT
  • 141030Z 11004KT 070V130 CAVOK 25/10 Q1023 NOSIG
  • 141000Z 12003KT 050V160 CAVOK 25/10 Q1024 NOSIG

TAF TAF LDSP
Valid from the 14 at 12:00 until the 15 at 12:00 UTC


141125Z 1412/1512 23007KT CAVOK TX26/1412Z TN13/1503Z
BECMG 1415/1417 VRB02KT



MET'MAP, your aeronautical weather chart ! - Copyright ORBIFLY December 2007 - Disclaimer

ORBIFLY MET'MAP TEAM :

Programming & Development : Alexandra Zaïnal
Original concept : Baudouin d'Aumeries
Technical & hardware support : Manuel Goepfert
Assistance : Marc-Olivier Méhu




SOURCES & CREDITS :

   NOAA